Categorie :
Contrôle au checkpoint Arrivée TTM (hors pénalités)
OrdreCoureur [Dossard] - ÉquipeCatOrdre CatHeureTemps cumulé
1Felix Richard [911] - Les Béarnais volantsH26/11 11:59:163:57:16
2Christophe Gaillac [912] - Les Béarnais volantsH26/11 11:59:173:57:17
3Erwan Latus [923] - Jeanne et SergeM26/11 12:09:224:07:22
4Flavie Vandeville [924] - Jeanne et SergeM26/11 12:09:264:07:26
5Bruno Giustranti [943] - PECHBUSQUEH26/11 12:12:514:10:51
6Francisco Leite [944] - PECHBUSQUEH26/11 12:12:524:10:52
7Grégory Lambert [939] - Promenons Nous dans les bois tant que le loup n'y est pasH26/11 12:20:144:18:14
8Thomas Defix [940] - Promenons Nous dans les bois tant que le loup n'y est pasH26/11 12:20:154:18:15
9Jean Rossetto [929] - Jean-Claude ExpressH26/11 12:22:294:20:29
10Claude Vidal [930] - Jean-Claude ExpressH26/11 12:22:304:20:30
11Etienne Gomez [926] - SiTarrivesApresTuPayesTonCoupH26/11 12:28:404:26:40
12Patrick Fourniols [925] - SiTarrivesApresTuPayesTonCoupH26/11 12:28:414:26:41
13Christophe Marco [905] - TCAPH26/11 12:34:004:32:00
14Christophe Rigaud [906] - TCAPH26/11 12:34:024:32:02
15Marc Dudon [907] - AIRBUS RunningH26/11 12:37:554:35:55
16Wilfrid Alias [908] - AIRBUS RunningH26/11 12:37:564:35:56
17Sabine Cazalot [909] - A DEUX SAPHILM26/11 12:39:244:37:24
18Philippe Ferat [910] - A DEUX SAPHILM26/11 12:39:244:37:24
19Pierre Chollet [938] - Pierre et MatthieuH26/11 12:49:374:47:37
20Matthieu Souque [937] - Pierre et MatthieuH26/11 12:49:404:47:40
21Alexandre Berges [932] - Run and Fit/ sporting formM26/11 12:50:444:48:44
22Véronique Lievin [931] - Run and Fit/ sporting formM26/11 12:50:464:48:46
23Thierry Corbarieu [934] - don't worry, be happyM26/11 12:54:494:52:49
24Carole Bouffard [933] - don't worry, be happyM26/11 12:54:514:52:51
25Béatrice Flaig [936] - Les Pingouins du DésertM26/11 13:04:005:02:00
26Ludovic Pinel [935] - Les Pingouins du DésertM26/11 13:04:025:02:02
27David Cabandé [913] - Les Cerveaux-LentsH26/11 13:05:225:03:22
28Julien Tisseyre [914] - Les Cerveaux-LentsH26/11 13:05:235:03:23
29Caroline Arguel [921] - Gymnasia Girls teamF26/11 13:11:405:09:40
30Sophie Girard [901] - Ventoux GirlsF26/11 13:16:185:14:18
31Jérôme Mel [916] - Les Chemin'hautsH26/11 13:17:475:15:47
32Guillaume Vila [915] - Les Chemin'hautsH26/11 13:17:495:15:49
33Remi Demay [941] - DemayH26/11 13:29:505:27:50
34Eddy Benard [942] - DemayH26/11 13:29:515:27:51
35Ghislaine Rebullida [904] - Les TagadasF26/11 13:48:025:46:02
36Claire Guchens [903] - Les TagadasF26/11 13:48:035:46:03
37Erwan Rigaud [919] - Les Blouses BrothersH26/11 13:50:355:48:35